Flight Track Log - Related Links

Times and Time Zones

All times are in EST time to prevent confusion due to time zone crossing. See the UAL33 flight status page for this flight to view local times or setup timezone preferences in your user account.

Time Position Orientation Groundspeed Altitude Reporting Facility
EST Latitude Longitude Course Direction KTS MPH feet Rate Location/Type
Tue 04:29:00 AM 36.2182 141.2532 57° Northeast  Level FlightAware Approximate
Tue 04:30:00 AM 36.2932 141.3987 57° Northeast  Level FlightAware Approximate
Tue 04:31:00 AM 36.3680 141.5444 57° Northeast  Level FlightAware Approximate
Tue 04:32:00 AM 36.4426 141.6904 58° Northeast  Level FlightAware Approximate
Tue 04:33:00 AM 36.5170 141.8367 58° Northeast  Level FlightAware Approximate
Tue 04:34:00 AM 36.5913 141.9832 58° Northeast  Level FlightAware Approximate
Tue 04:35:00 AM 36.6654 142.1301 58° Northeast  Level FlightAware Approximate
Tue 04:36:00 AM 36.7398 142.2783 58° Northeast  Level FlightAware Approximate
Tue 04:37:00 AM 36.8140 142.4267 58° Northeast  Level FlightAware Approximate
Tue 04:38:00 AM 36.8881 142.5755 58° Northeast  Level FlightAware Approximate
Tue 04:39:00 AM 36.9566 142.7137 58° Northeast  Level FlightAware Approximate
Tue 04:40:00 AM 37.0303 142.8631 58° Northeast  Level FlightAware Approximate
Tue 04:41:00 AM 37.1038 143.0127 58° Northeast  Level FlightAware Approximate
Tue 04:42:00 AM 37.1771 143.1626 58° Northeast  Level FlightAware Approximate
Tue 04:43:00 AM 37.2501 143.3128 59° Northeast  Level FlightAware Approximate
Tue 04:44:00 AM 37.3231 143.4633 59° Northeast  Level FlightAware Approximate
Tue 04:45:00 AM 37.3958 143.6140 59° Northeast  Level FlightAware Approximate
Tue 04:46:00 AM 37.4683 143.7651 59° Northeast  Level FlightAware Approximate
Tue 04:47:00 AM 37.5406 143.9165 59° Northeast  Level FlightAware Approximate
Tue 04:48:00 AM 37.6128 144.0681 59° Northeast  Level FlightAware Approximate
Tue 04:49:00 AM 37.6847 144.2201 59° Northeast  Level FlightAware Approximate
Tue 04:50:00 AM 37.7565 144.3723 59° Northeast  Level FlightAware Approximate
Tue 04:51:00 AM 37.8280 144.5249 59° Northeast  Level FlightAware Approximate
Tue 04:52:00 AM 37.8994 144.6777 59° Northeast  Level FlightAware Approximate
Tue 04:53:00 AM 37.9706 144.8309 59° Northeast  Level FlightAware Approximate
Tue 04:54:00 AM 38.0415 144.9843 60° Northeast  Level FlightAware Approximate
Tue 04:55:00 AM 38.1124 145.1383 60° Northeast  Level FlightAware Approximate
Tue 04:56:00 AM 38.1831 145.2926 60° Northeast  Level FlightAware Approximate
Tue 04:57:00 AM 38.2536 145.4472 60° Northeast  Level FlightAware Approximate
Tue 04:58:00 AM 38.3239 145.6021 60° Northeast  Level FlightAware Approximate
Tue 04:59:00 AM 38.3939 145.7573 60° Northeast  Level FlightAware Approximate
Tue 05:00:00 AM 38.4638 145.9128 60° Northeast  Level FlightAware Approximate
Tue 05:01:00 AM 38.5335 146.0686 60° Northeast  Level FlightAware Approximate
Tue 05:02:00 AM 38.6029 146.2247 60° Northeast  Level FlightAware Approximate
Tue 05:03:00 AM 38.6722 146.3811 60° Northeast  Level FlightAware Approximate
Tue 05:04:00 AM 38.7412 146.5378 61° Northeast  Level FlightAware Approximate
Tue 05:05:00 AM 38.8101 146.6948 61° Northeast  Level FlightAware Approximate
Tue 05:06:00 AM 38.8787 146.8521 61° Northeast  Level FlightAware Approximate
Tue 05:07:00 AM 38.9471 147.0098 61° Northeast  Level FlightAware Approximate
Tue 05:08:00 AM 39.0153 147.1677 61° Northeast  Level FlightAware Approximate
Tue 05:09:00 AM 39.0833 147.3259 61° Northeast  Level FlightAware Approximate
Tue 05:10:00 AM 39.1510 147.4844 61° Northeast  Level FlightAware Approximate
Tue 05:11:00 AM 39.2186 147.6433 61° Northeast  Level FlightAware Approximate
Tue 05:12:00 AM 39.2859 147.8024 61° Northeast  Level FlightAware Approximate
Tue 05:13:00 AM 39.3530 147.9619 61° Northeast  Level FlightAware Approximate
Tue 05:14:00 AM 39.4199 148.1216 61° Northeast  Level FlightAware Approximate
Tue 05:15:00 AM 39.4866 148.2817 62° Northeast  Level FlightAware Approximate
Tue 05:16:00 AM 39.5531 148.4420 62° Northeast  Level FlightAware Approximate
Tue 05:17:00 AM 39.6193 148.6027 62° Northeast  Level FlightAware Approximate
Tue 05:18:00 AM 39.6853 148.7637 62° Northeast  Level FlightAware Approximate
Tue 05:19:00 AM 39.7511 148.9250 62° Northeast  Level FlightAware Approximate
Tue 05:20:00 AM 39.8167 149.0866 62° Northeast  Level FlightAware Approximate
Tue 05:21:00 AM 39.8821 149.2485 62° Northeast  Level FlightAware Approximate
Tue 05:22:00 AM 39.9472 149.4107 62° Northeast  Level FlightAware Approximate
Tue 05:23:00 AM 40.0121 149.5732 62° Northeast  Level FlightAware Approximate
Tue 05:24:00 AM 40.0768 149.7361 63° Northeast  Level FlightAware Approximate
Tue 05:25:00 AM 40.1412 149.8992 63° Northeast  Level FlightAware Approximate
Tue 05:26:00 AM 40.2054 150.0626 63° Northeast  Level FlightAware Approximate
Tue 05:27:00 AM 40.2694 150.2264 63° Northeast  Level FlightAware Approximate
Tue 05:28:00 AM 40.3331 150.3905 63° Northeast  Level FlightAware Approximate
Tue 05:29:00 AM 40.3967 150.5549 63° Northeast  Level FlightAware Approximate
Tue 05:30:00 AM 40.4600 150.7195 63° Northeast  Level FlightAware Approximate
Tue 05:31:00 AM 40.5231 150.8848 63° Northeast  Level FlightAware Approximate
Tue 05:32:00 AM 40.5860 151.0504 63° Northeast  Level FlightAware Approximate
Tue 05:33:00 AM 40.6487 151.2163 63° Northeast  Level FlightAware Approximate
Tue 05:34:00 AM 40.7112 151.3826 64° Northeast  Level FlightAware Approximate
Tue 05:35:00 AM 40.7734 151.5491 64° Northeast  Level FlightAware Approximate
Tue 05:36:00 AM 40.8354 151.7159 64° Northeast  Level FlightAware Approximate
Tue 05:37:00 AM 40.8971 151.8831 64° Northeast  Level FlightAware Approximate
Tue 05:38:00 AM 40.9586 152.0506 64° Northeast  Level FlightAware Approximate
Tue 05:39:00 AM 41.0198 152.2184 64° Northeast  Level FlightAware Approximate
Tue 05:40:00 AM 41.0808 152.3864 64° Northeast  Level FlightAware Approximate
Tue 05:41:00 AM 41.1416 152.5549 64° Northeast  Level FlightAware Approximate
Tue 05:42:00 AM 41.2021 152.7236 64° Northeast  Level FlightAware Approximate
Tue 05:43:00 AM 41.2624 152.8926 65° Northeast  Level FlightAware Approximate
Tue 05:44:00 AM 41.3224 153.0620 65° Northeast  Level FlightAware Approximate
Tue 05:45:00 AM 41.3822 153.2316 65° Northeast  Level FlightAware Approximate
Tue 05:46:00 AM 41.4417 153.4016 65° Northeast  Level FlightAware Approximate
Tue 05:47:00 AM 41.5010 153.5718 65° Northeast  Level FlightAware Approximate
Tue 05:48:00 AM 41.5600 153.7424 65° Northeast  Level FlightAware Approximate
Tue 05:49:00 AM 41.6188 153.9133 65° Northeast  Level FlightAware Approximate
Tue 05:50:00 AM 41.6773 154.0845 65° Northeast  Level FlightAware Approximate
Tue 05:51:00 AM 41.7355 154.2560 65° Northeast  Level FlightAware Approximate
Tue 05:52:00 AM 41.7935 154.4279 66° East  Level FlightAware Approximate
Tue 05:53:00 AM 41.8513 154.6000 66° East  Level FlightAware Approximate
Tue 05:54:00 AM 41.9088 154.7725 66° East  Level FlightAware Approximate
Tue 05:55:00 AM 41.9660 154.9452 66° East  Level FlightAware Approximate
Tue 05:56:00 AM 42.0230 155.1183 66° East  Level FlightAware Approximate
Tue 05:57:00 AM 42.0797 155.2917 66° East  Level FlightAware Approximate
Tue 05:58:00 AM 42.1361 155.4654 66° East  Level FlightAware Approximate
Tue 05:59:00 AM 42.1923 155.6394 66° East  Level FlightAware Approximate
Tue 06:00:00 AM 42.2482 155.8137 67° East  Level FlightAware Approximate
Tue 06:01:00 AM 42.3039 155.9883 67° East  Level FlightAware Approximate
Tue 06:02:00 AM 42.3593 156.1632 67° East  Level FlightAware Approximate
Tue 06:03:00 AM 42.4144 156.3385 67° East  Level FlightAware Approximate
Tue 06:04:00 AM 42.4693 156.5140 67° East  Level FlightAware Approximate
Tue 06:05:00 AM 42.5239 156.6898 67° East  Level FlightAware Approximate
Tue 06:06:00 AM 42.5782 156.8660 67° East  Level FlightAware Approximate
Tue 06:07:00 AM 42.6323 157.0425 67° East  Level FlightAware Approximate
Tue 06:08:00 AM 42.6860 157.2192 67° East  Level FlightAware Approximate
Tue 06:09:00 AM 42.7395 157.3963 68° East  Level FlightAware Approximate
Tue 06:10:00 AM 42.7928 157.5737 68° East  Level FlightAware Approximate
Tue 06:11:00 AM 42.8457 157.7514 68° East  Level FlightAware Approximate
Tue 06:12:00 AM 42.8984 157.9294 68° East  Level FlightAware Approximate
Tue 06:13:00 AM 42.9508 158.1076 68° East  Level FlightAware Approximate
Tue 06:14:00 AM 43.0030 158.2862 68° East  Level FlightAware Approximate
Tue 06:15:00 AM 43.0548 158.4651 68° East  Level FlightAware Approximate
Tue 06:16:00 AM 43.1064 158.6443 68° East  Level FlightAware Approximate
Tue 06:17:00 AM 43.1577 158.8238 69° East  Level FlightAware Approximate
Tue 06:18:00 AM 43.2087 159.0036 69° East  Level FlightAware Approximate
Tue 06:19:00 AM 43.2595 159.1837 69° East  Level FlightAware Approximate
Tue 06:20:00 AM 43.3099 159.3641 69° East  Level FlightAware Approximate
Tue 06:21:00 AM 43.3601 159.5448 69° East  Level FlightAware Approximate
Tue 06:22:00 AM 43.4100 159.7258 69° East  Level FlightAware Approximate
Tue 06:23:00 AM 43.4596 159.9071 69° East  Level FlightAware Approximate
Tue 06:24:00 AM 43.5089 160.0887 69° East  Level FlightAware Approximate
Tue 06:25:00 AM 43.5579 160.2706 70° East  Level FlightAware Approximate
Tue 06:26:00 AM 43.6066 160.4528 70° East  Level FlightAware Approximate
Tue 06:27:00 AM 43.6551 160.6353 70° East  Level FlightAware Approximate
Tue 06:28:00 AM 43.7032 160.8180 70° East  Level FlightAware Approximate
Tue 06:29:00 AM 43.7511 161.0011 70° East  Level FlightAware Approximate
Tue 06:30:00 AM 43.7986 161.1844 70° East  Level FlightAware Approximate
Tue 06:31:00 AM 43.8459 161.3681 70° East  Level FlightAware Approximate
Tue 06:32:00 AM 43.8929 161.5520 70° East  Level FlightAware Approximate
Tue 06:33:00 AM 43.9396 161.7363 71° East  Level FlightAware Approximate
Tue 06:34:00 AM 43.9860 161.9208 71° East  Level FlightAware Approximate
Tue 06:35:00 AM 44.0321 162.1056 71° East  Level FlightAware Approximate
Tue 06:36:00 AM 44.0775 162.2894 71° East  Level FlightAware Approximate
Tue 06:37:00 AM 44.1227 162.4734 71° East  Level FlightAware Approximate
Tue 06:38:00 AM 44.1676 162.6578 71° East  Level FlightAware Approximate
Tue 06:39:00 AM 44.2122 162.8424 71° East  Level FlightAware Approximate
Tue 06:40:00 AM 44.2564 163.0273 71° East  Level FlightAware Approximate
Tue 06:41:00 AM 44.3004 163.2125 72° East  Level FlightAware Approximate
Tue 06:42:00 AM 44.3441 163.3980 72° East  Level FlightAware Approximate
Tue 06:43:00 AM 44.3875 163.5837 72° East  Level FlightAware Approximate
Tue 06:44:00 AM 44.4306 163.7697 72° East  Level FlightAware Approximate
Tue 06:45:00 AM 44.4734 163.9560 72° East  Level FlightAware Approximate
Tue 06:46:00 AM 44.5158 164.1426 72° East  Level FlightAware Approximate
Tue 06:47:00 AM 44.5580 164.3294 72° East  Level FlightAware Approximate
Tue 06:48:00 AM 44.5999 164.5165 72° East  Level FlightAware Approximate
Tue 06:49:00 AM 44.6414 164.7039 73° East  Level FlightAware Approximate
Tue 06:50:00 AM 44.6827 164.8915 73° East  Level FlightAware Approximate
Tue 06:51:00 AM 44.7237 165.0794 73° East  Level FlightAware Approximate
Tue 06:52:00 AM 44.7643 165.2676 73° East  Level FlightAware Approximate
Tue 06:53:00 AM 44.8046 165.4560 73° East  Level FlightAware Approximate
Tue 06:54:00 AM 44.8446 165.6447 73° East  Level FlightAware Approximate
Tue 06:55:00 AM 44.8843 165.8336 73° East  Level FlightAware Approximate
Tue 06:56:00 AM 44.9238 166.0229 74° East  Level FlightAware Approximate
Tue 06:57:00 AM 44.9628 166.2123 74° East  Level FlightAware Approximate
Tue 06:58:00 AM 45.0016 166.4021 74° East  Level FlightAware Approximate
Tue 06:59:00 AM 45.0401 166.5921 74° East  Level FlightAware Approximate
Tue 07:00:00 AM 45.0782 166.7823 74° East  Level FlightAware Approximate
Tue 07:01:00 AM 45.1160 166.9728 74° East  Level FlightAware Approximate
Tue 07:02:00 AM 45.1535 167.1635 74° East  Level FlightAware Approximate
Tue 07:03:00 AM 45.1907 167.3545 74° East  Level FlightAware Approximate
Tue 07:04:00 AM 45.2276 167.5458 75° East  Level FlightAware Approximate
Tue 07:05:00 AM 45.2641 167.7373 75° East  Level FlightAware Approximate
Tue 07:06:00 AM 45.3004 167.9290 75° East  Level FlightAware Approximate
Tue 07:07:00 AM 45.3363 168.1210 75° East  Level FlightAware Approximate
Tue 07:08:00 AM 45.3719 168.3132 75° East  Level FlightAware Approximate
Tue 07:09:00 AM 45.4071 168.5057 75° East  Level FlightAware Approximate
Tue 07:10:00 AM 45.4421 168.6984 75° East  Level FlightAware Approximate
Tue 07:11:00 AM 45.4767 168.8913 76° East  Level FlightAware Approximate
Tue 07:12:00 AM 45.5110 169.0845 76° East  Level FlightAware Approximate
Tue 07:13:00 AM 45.5450 169.2779 76° East  Level FlightAware Approximate
Tue 07:13:18 AM 41.0000 170.0000 87° East 514 592 39,000  Level Oakland Oceanic (ODAPS)
Tue 07:59:29 AM 41.0500 178.6167 92° East 505 581 39,000  Level Oakland Oceanic (ODAPS)
Tue 08:06:15 AM 41.0000 180.0000 87° East 516 594 39,000  Level Oakland Oceanic (ODAPS)
Tue 08:13:45 AM 41.0500 -178.7667 88° East 518 596 39,000  Level Oakland Oceanic (ODAPS)
Tue 08:28:22 AM 41.1000 -176.1500 89° East 519 597 39,000  Level Oakland Oceanic (ODAPS)
Tue 08:40:09 AM 41.1000 -173.5167 91° East 523 602 39,000  Level Oakland Oceanic (ODAPS)
Tue 08:54:08 AM 41.0333 -170.8667 93° East 523 602 39,000  Level Oakland Oceanic (ODAPS)
Tue 09:17:06 AM 41.1000 -166.7167 89° East 531 611 39,000  Level Oakland Oceanic (ODAPS)
Tue 09:20:43 AM 41.1000 -166.0000 89° East 537 618 39,000  Level Oakland Oceanic (ODAPS)
Tue 09:22:19 AM 41.1000 -165.5000 90° East 531 611 39,000  Level Oakland Oceanic (ODAPS)
Tue 09:35:31 AM 41.0833 -162.8167 91° East 528 608 39,000  Level Oakland Oceanic (ODAPS)
Tue 09:50:18 AM 41.0000 -160.1000 90° East 524 603 39,000  Level Oakland Oceanic (ODAPS)
Tue 09:51:29 AM 41.0000 -160.0000 87° East 547 629 39,000  Level Oakland Oceanic (ODAPS)
Tue 10:03:47 AM 41.0833 -157.3500 88° East 552 635 39,000  Level Oakland Oceanic (ODAPS)
Tue 10:17:05 AM 41.1000 -154.5333 90° East 556 640 39,000  Level Oakland Oceanic (ODAPS)
Tue 10:31:07 AM 41.0667 -151.7000 92° East 556 640 39,000  Level Oakland Oceanic (ODAPS)
Tue 10:39:24 AM 41.0000 -150.0000 87° East 559 643 39,000  Level Oakland Oceanic (ODAPS)
Tue 10:45:53 AM 41.0500 -148.9000 88° East 562 647 39,000  Level Oakland Oceanic (ODAPS)
Tue 10:58:48 AM 41.1000 -146.0167 89° East 565 650 39,000 55 Level Oakland Oceanic (ODAPS)
Tue 11:22:31 AM 41.1000 -146.0167 89° East 565 650 41,000 68 Climbing Oakland Oceanic (ODAPS)
Tue 11:28:22 AM 41.0167 -140.3667 93° East 557 641 41,000  Level Oakland Oceanic (ODAPS)
Tue 11:31:28 AM 41.0000 -140.0000 101° East 550 633 41,000  Level Oakland Oceanic (ODAPS)
Tue 11:43:00 AM 40.6167 -137.6167 103° East 551 634 41,000  Level Oakland Oceanic (ODAPS)
Tue 12:07:56 PM 39.5333 -132.2333 106° East 559 643 41,000  Level Oakland Oceanic (ODAPS)
Tue 12:20:04 PM 39.0000 -130.0000 102° East 558 642 41,000  Level Oakland Oceanic (ODAPS)
Tue 12:27:49 PM 38.8167 -128.9500 102° East 555 639 41,000 -8 Level Oakland Oceanic (ODAPS)
Tue 12:32:35 PM 38.5436 -127.4933 111° Southeast 555 639 40,900  Descending Oakland Center
Tue 12:33:00 PM 38.5375 -127.3725 104° East 558 642 41,000 98 Climbing FlightAware Transoceanic
Tue 12:33:36 PM 38.5083 -127.3036 103° East 553 636 41,000  Level Oakland Center
Tue 12:34:00 PM 38.5031 -127.1941 103° East 555 639 41,000  Level FlightAware Transoceanic
Tue 12:34:37 PM 38.4722 -127.1133 104° East 553 636 41,000  Level Oakland Center
Tue 12:35:00 PM 38.4667 -127.0000 111° Southeast 555 639 41,000 -97 Level FlightAware Transoceanic
Tue 12:35:39 PM 38.4286 -126.9256 106° East 554 638 40,900  Descending Oakland Center
Tue 12:36:00 PM 38.4094 -126.8114 111° Southeast 555 639 41,000 98 Climbing FlightAware Transoceanic
Tue 12:36:40 PM 38.3725 -126.7447 112° Southeast 552 635 41,000  Level Oakland Center
Tue 12:37:00 PM 38.3518 -126.6232 111° Southeast 555 639 41,000 -97 Level FlightAware Transoceanic
Tue 12:37:42 PM 38.3175 -126.5664 111° Southeast 547 629 40,900  Descending Oakland Center
Tue 12:38:00 PM 38.2939 -126.4352 111° Southeast 555 639 41,000  Climbing FlightAware Transoceanic
Tue 12:38:43 PM 38.2403 -126.3544 115° Southeast 550 633 40,900 -57 Descending Oakland Center
Tue 12:39:45 PM 38.1828 -126.1967 115° Southeast 548 631 40,900  Level Oakland Center
Tue 12:40:46 PM 38.1189 -126.0219 115° Southeast 548 631 40,900  Level Oakland Center
Tue 12:41:48 PM 38.0533 -125.8478 116° Southeast 549 632 40,900  Level Oakland Center
Tue 12:42:49 PM 37.9744 -125.6389 116° Southeast 549 632 40,900 49 Level Oakland Center
Tue 12:43:51 PM 37.9094 -125.4642 115° Southeast 549 632 41,000  Climbing Oakland Center
Tue 12:44:52 PM 37.8444 -125.2911 115° Southeast 548 631 40,900 -49 Descending Oakland Center
Tue 12:45:54 PM 37.7775 -125.1167 116° Southeast 551 634 40,900  Level Oakland Center
Tue 12:46:55 PM 37.7117 -124.9431 116° Southeast 551 634 40,900 49 Level Oakland Center
Tue 12:47:56 PM 37.6436 -124.7692 116° Southeast 554 638 41,000 49 Climbing Oakland Center
Tue 12:48:58 PM 37.5772 -124.5981 116° Southeast 547 629 41,000  Level Oakland Center
Tue 12:49:59 PM 37.5114 -124.4267 116° Southeast 547 629 41,000  Level Oakland Center
Tue 12:51:01 PM 37.4306 -124.2222 116° Southeast 546 628 41,000  Level Oakland Center
Tue 12:52:02 PM 37.3636 -124.0503 116° Southeast 549 632 41,000 -49 Level Oakland Center
Tue 12:53:03 PM 37.2925 -123.8775 117° Southeast 563 648 40,900  Descending Oakland Center
Tue 12:54:05 PM 37.2253 -123.7083 116° Southeast 552 635 41,000 49 Climbing Oakland Center
Tue 12:55:06 PM 37.1589 -123.5403 116° Southeast 545 627 41,000 -49 Level Oakland Center
Tue 12:56:07 PM 37.0911 -123.3717 117° Southeast 544 626 40,900 -49 Descending Oakland Center
Tue 12:57:09 PM 37.0239 -123.2044 117° Southeast 543 625 40,900 15 Level Oakland Center
Tue 01:02:40 PM 36.6282 -122.2450 117° Southeast 544 626 41,000 17 Climbing FlightAware ADS-B
Tue 01:03:11 PM 36.5929 -122.1600 117° Southeast 545 627 41,000 -256 Level FlightAware ADS-B
Tue 01:08:32 PM 36.2159 -121.2740 118° Southeast 545 627 39,500 -369 Descending FlightAware ADS-B
Tue 01:09:09 PM 36.1822 -121.1933 118° Southeast 544 626 38,800 -1,091 Descending Los Angeles Center
Tue 01:10:11 PM 36.1103 -121.0317 119° Southeast 536 617 37,700 -1,065 Descending Los Angeles Center
Tue 01:11:13 PM 36.0400 -120.8703 118° Southeast 534 615 36,600 -1,016 Descending Los Angeles Center
Tue 01:12:15 PM 35.9706 -120.7081 118° Southeast 533 613 35,600 -823 Descending Los Angeles Center
Tue 01:13:17 PM 35.8878 -120.5183 118° Southeast 524 603 34,900 -290 Descending Los Angeles Center
Tue 01:14:19 PM 35.8172 -120.3594 119° Southeast 524 603 35,000  Climbing Los Angeles Center
Tue 01:15:22 PM 35.7469 -120.2000 118° Southeast 525 604 34,900  Descending Los Angeles Center
Tue 01:16:24 PM 35.6756 -120.0408 119° Southeast 525 604 35,000 -823 Climbing Los Angeles Center
Tue 01:17:26 PM 35.5714 -119.9119 135° Southeast 530 610 33,200 -1,016 Descending Los Angeles Center
Tue 01:18:28 PM 35.4514 -119.8094 145° Southeast 522 601 32,900 -1,065 Descending Los Angeles Center
Tue 01:19:30 PM 35.3325 -119.7061 145° Southeast 519 597 31,000 -2,081 Descending Los Angeles Center
Tue 01:20:32 PM 35.2158 -119.6067 145° Southeast 512 589 28,600 -2,081 Descending Los Angeles Center
Tue 01:21:34 PM 35.0831 -119.4928 145° Southeast 488 562 26,700 -1,920 Descending Los Angeles Center
Tue 01:22:37 PM 34.9758 -119.4017 145° Southeast 472 543 24,600 -2,016 Descending Los Angeles Center
Tue 01:23:39 PM 34.8719 -119.3133 145° Southeast 459 528 22,500 -1,790 Descending Los Angeles Center
Tue 01:24:41 PM 34.7719 -119.2261 144° Southeast 445 512 20,900 -1,548 Descending Los Angeles Center
Tue 01:25:43 PM 34.6733 -119.1433 145° Southeast 433 498 19,300 -1,597 Descending Los Angeles Center
Tue 01:26:45 PM 34.5636 -119.0556 147° Southeast 423 487 17,600 -1,597 Descending Los Angeles Center
Tue 01:27:47 PM 34.4700 -118.9756 145° Southeast 412 474 16,000 -1,536 Descending Los Angeles Center
Tue 01:28:50 PM 34.3775 -118.8972 145° Southeast 406 467 14,400 -1,536 Descending Los Angeles Center
Tue 01:29:52 PM 34.2747 -118.8511 160° South 393 452 12,800 -1,161 Descending Los Angeles Center
Tue 01:30:54 PM 34.1572 -118.8083 163° South 367 422 12,000 -774 Descending Los Angeles Center
Tue 01:31:56 PM 34.0683 -118.7750 163° South 334 384 11,200 -919 Descending Los Angeles Center
Tue 01:32:58 PM 34.0314 -118.6789 115° Southeast 298 343 10,100 -823 Descending Los Angeles Center
Tue 01:34:00 PM 34.0228 -118.5881 97° East 275 316 9,500 -1,056 Descending Los Angeles Center
Tue 01:35:03 PM 34.0139 -118.4947 97° East 263 303 7,900 -1,200 Descending Los Angeles Center
Tue 01:36:05 PM 34.0147 -118.4269 89° East 251 289 7,000 -484 Descending Los Angeles Center
Tue 01:37:07 PM 34.0267 -118.3400 81° East 223 257 6,900 -581 Descending Los Angeles Center
Tue 01:38:09 PM 34.0475 -118.2819 67° East 195 224 5,800 -1,113 Descending Los Angeles Center
Tue 01:39:11 PM 34.0589 -118.2186 78° East 194 223 4,600 -810 Descending Los Angeles Center
Tue 01:44:27 PM 33.9554 -118.3510 78° East 149 171 700 -676 Descending FlightAware ADS-B
Tue 01:45:24 PM 33.9519 -118.3922 78° East 156 180 400 -316 Descending Los Angeles Center

Login

Don't have an account? Register now (free) for customized features, flight alerts, and more!